createdAt,value
2022-07-29T00:00:35.017Z,95841.41
2022-07-29T00:03:02.530Z,95833.41
2022-07-29T00:05:30.264Z,95837.09
2022-07-29T00:07:57.770Z,95827.44
2022-07-29T00:10:25.424Z,95834.69
2022-07-29T00:12:52.871Z,95836.81
2022-07-29T00:15:20.922Z,95827.78
2022-07-29T00:17:49.740Z,95829.91
2022-07-29T00:20:17.231Z,95820.53
2022-07-29T00:22:44.729Z,95818.22
2022-07-29T00:25:13.857Z,95821.63
2022-07-29T00:27:41.560Z,95820.06
2022-07-29T00:30:09.892Z,95812.38
2022-07-29T00:32:37.399Z,95814.28
2022-07-29T00:35:25.130Z,95791.81
2022-07-29T00:37:53.063Z,95797.25
2022-07-29T00:40:23.439Z,95803.16
2022-07-29T00:42:52.330Z,95802.94
2022-07-29T00:45:21.108Z,95798.97
2022-07-29T00:47:48.704Z,95792.56
2022-07-29T00:50:17.787Z,95788.97
2022-07-29T00:52:45.566Z,95785.91
2022-07-29T00:55:15.802Z,95791.22
2022-07-29T00:57:44.248Z,95792.34
2022-07-29T01:00:14.288Z,95785.41
2022-07-29T01:02:41.781Z,95796.84
2022-07-29T01:05:09.777Z,95792.50
2022-07-29T01:07:39.373Z,95784.97
2022-07-29T01:10:09.824Z,95780.72
2022-07-29T01:12:39.251Z,95760.75
2022-07-29T01:15:09.456Z,95786.31
2022-07-29T01:17:53.153Z,95783.16
2022-07-29T01:20:31.729Z,95776.22
2022-07-29T01:23:37.321Z,95773.28
2022-07-29T01:26:43.432Z,95771.09
2022-07-29T01:29:18.763Z,95762.03
2022-07-29T01:31:59.578Z,95773.94
2022-07-29T01:34:34.420Z,95767.44
2022-07-29T01:37:10.171Z,95765.41
2022-07-29T01:39:40.367Z,95770.50
2022-07-29T01:42:14.577Z,95767.66
2022-07-29T01:44:50.276Z,95758.56
2022-07-29T01:47:22.614Z,95762.97
2022-07-29T01:49:54.729Z,95765.03
2022-07-29T01:52:25.782Z,95760.09
2022-07-29T01:54:56.984Z,95754.84
2022-07-29T01:57:29.513Z,95758.78
2022-07-29T02:00:00.330Z,95756.44
2022-07-29T02:02:29.824Z,95753.16
2022-07-29T02:04:59.549Z,95748.25
2022-07-29T02:07:30.164Z,95748.66
2022-07-29T02:10:00.035Z,95749.03
2022-07-29T02:12:29.710Z,95747.28
2022-07-29T02:15:01.427Z,95751.78
2022-07-29T02:17:42.809Z,95731.16
2022-07-29T02:20:11.841Z,95755.81
2022-07-29T02:22:40.844Z,95738.53
2022-07-29T02:25:13.774Z,95747.78
2022-07-29T02:27:42.674Z,95736.28
2022-07-29T02:30:13.222Z,95744.28
2022-07-29T02:32:43.494Z,95743.09
2022-07-29T02:35:12.412Z,95736.09
2022-07-29T02:37:41.480Z,95740.69
2022-07-29T02:40:13.176Z,95745.97
2022-07-29T02:42:44.087Z,95738.16
2022-07-29T02:45:13.234Z,95733.69
2022-07-29T02:47:44.621Z,95719.91
2022-07-29T02:50:16.069Z,95738.75
2022-07-29T02:52:46.197Z,95712.44
2022-07-29T02:55:20.005Z,95741.53
2022-07-29T02:57:54.887Z,95740.47
2022-07-29T03:00:28.638Z,95723.00
2022-07-29T03:02:59.924Z,95744.22
2022-07-29T03:05:27.937Z,95737.66
2022-07-29T03:07:59.036Z,95735.00
2022-07-29T03:10:28.172Z,95734.50
2022-07-29T03:12:57.162Z,95742.31
2022-07-29T03:15:26.724Z,95738.53
2022-07-29T03:17:54.862Z,95749.41
2022-07-29T03:20:22.708Z,95753.88
2022-07-29T03:22:50.458Z,95741.09
2022-07-29T03:25:21.253Z,95745.50
2022-07-29T03:27:49.457Z,95736.91
2022-07-29T03:30:18.186Z,95731.38
2022-07-29T03:32:52.614Z,95731.91
2022-07-29T03:35:21.254Z,95734.53
2022-07-29T03:37:48.865Z,95743.38
2022-07-29T03:40:21.933Z,95741.84
2022-07-29T03:42:54.133Z,95730.25
2022-07-29T03:45:22.609Z,95740.47
2022-07-29T03:48:00.926Z,95751.50
2022-07-29T03:50:30.576Z,95752.03
2022-07-29T03:52:58.529Z,95726.94
2022-07-29T03:55:26.940Z,95745.69
2022-07-29T03:57:54.840Z,95733.94
2022-07-29T04:00:23.553Z,95733.69
2022-07-29T04:02:52.451Z,95723.50
2022-07-29T04:05:20.671Z,95735.47
2022-07-29T04:07:49.605Z,95741.00
2022-07-29T04:10:29.370Z,95746.00
2022-07-29T04:12:58.950Z,95753.06
2022-07-29T04:15:26.730Z,95748.06
2022-07-29T04:18:00.798Z,95756.66
2022-07-29T04:20:28.364Z,95753.47
2022-07-29T04:22:56.092Z,95774.09
2022-07-29T04:25:23.933Z,95776.16
2022-07-29T04:28:03.933Z,95772.72
2022-07-29T04:30:32.598Z,95776.66
2022-07-29T04:33:01.675Z,95781.59
2022-07-29T04:35:29.157Z,95790.34
2022-07-29T04:37:56.730Z,95786.94
2022-07-29T04:40:24.263Z,95795.47
2022-07-29T04:42:51.741Z,95806.69
2022-07-29T04:45:22.672Z,95811.41
2022-07-29T04:47:50.335Z,95817.31
2022-07-29T04:50:19.319Z,95832.69
2022-07-29T04:52:47.020Z,95842.59
2022-07-29T04:55:14.477Z,95841.00
2022-07-29T04:57:41.943Z,95792.16
2022-07-29T05:00:10.924Z,95826.06
2022-07-29T05:02:38.456Z,95827.38
2022-07-29T05:05:06.538Z,95829.53
2022-07-29T05:07:35.457Z,95838.19
2022-07-29T05:10:02.924Z,95831.72
2022-07-29T05:12:30.448Z,95829.38
2022-07-29T05:14:57.898Z,95822.56
2022-07-29T05:17:25.369Z,95821.56
2022-07-29T05:19:52.967Z,95833.72
2022-07-29T05:22:20.603Z,95829.13
2022-07-29T05:24:49.525Z,95827.16
2022-07-29T05:27:17.116Z,95826.47
2022-07-29T05:29:45.934Z,95824.06
2022-07-29T05:32:14.151Z,95806.44
2022-07-29T05:34:51.394Z,95817.97
2022-07-29T05:37:19.397Z,95791.09
2022-07-29T05:39:50.580Z,95806.91
2022-07-29T05:42:26.162Z,95822.66
2022-07-29T05:44:53.800Z,95830.81
2022-07-29T05:47:21.393Z,95823.13
2022-07-29T05:49:49.195Z,95828.41
2022-07-29T05:52:16.694Z,95814.56
2022-07-29T05:54:44.620Z,95828.66
2022-07-29T05:57:17.632Z,95824.84
2022-07-29T05:59:46.444Z,95832.84
2022-07-29T06:02:14.034Z,95828.34
2022-07-29T06:04:41.580Z,95839.69
2022-07-29T06:07:09.108Z,95842.31
2022-07-29T06:09:36.824Z,95850.94
2022-07-29T06:12:04.873Z,95846.72
2022-07-29T06:14:33.483Z,95859.53
2022-07-29T06:17:02.482Z,95847.47
2022-07-29T06:19:30.053Z,95866.91
2022-07-29T06:21:57.491Z,95857.34
2022-07-29T06:24:24.962Z,95859.22
2022-07-29T06:26:52.390Z,95857.59
2022-07-29T06:29:19.893Z,95852.91
2022-07-29T06:31:47.355Z,95858.66
2022-07-29T06:34:16.676Z,95862.75
2022-07-29T06:36:45.288Z,95858.53
2022-07-29T06:39:13.933Z,95822.88
2022-07-29T06:41:41.553Z,95853.53
2022-07-29T06:44:09.028Z,95849.22
2022-07-29T06:46:37.319Z,95843.03
2022-07-29T06:49:05.741Z,95843.44
2022-07-29T06:51:34.799Z,95840.53
2022-07-29T06:54:12.871Z,95843.22
2022-07-29T06:56:42.529Z,95845.22
2022-07-29T06:59:11.570Z,95849.38
2022-07-29T07:01:40.742Z,95852.47
2022-07-29T07:04:09.495Z,95853.69
2022-07-29T07:06:38.658Z,95863.91
2022-07-29T07:09:06.751Z,95859.16
2022-07-29T07:11:34.752Z,95860.97
2022-07-29T07:14:03.729Z,95876.84
2022-07-29T07:16:42.042Z,95874.88
2022-07-29T07:19:09.570Z,95880.56
2022-07-29T07:21:38.419Z,95876.03
2022-07-29T07:24:06.919Z,95886.31
2022-07-29T07:26:34.379Z,95876.50
2022-07-29T07:29:02.294Z,95861.75
2022-07-29T07:31:29.863Z,95877.56
2022-07-29T07:33:57.369Z,95878.47
2022-07-29T07:36:25.414Z,95868.69
2022-07-29T07:38:54.220Z,95866.66
2022-07-29T07:41:21.952Z,95883.41
2022-07-29T07:43:49.769Z,95866.03
2022-07-29T07:46:17.756Z,95874.88
2022-07-29T07:48:45.486Z,95878.41
2022-07-29T07:51:13.064Z,95883.03
2022-07-29T07:53:40.584Z,95883.72
2022-07-29T07:56:11.501Z,95880.13
2022-07-29T07:58:39.933Z,95879.09
2022-07-29T08:01:07.703Z,95884.06
2022-07-29T08:03:35.353Z,95873.75
2022-07-29T08:06:02.824Z,95872.78
2022-07-29T08:08:30.506Z,95880.13
2022-07-29T08:10:57.947Z,95888.91
2022-07-29T08:13:29.716Z,95864.31
2022-07-29T08:16:01.516Z,95871.34
2022-07-29T08:18:30.417Z,95883.03
2022-07-29T08:20:58.374Z,95879.81
2022-07-29T08:23:31.502Z,95876.19
2022-07-29T08:26:13.410Z,95891.78
2022-07-29T08:28:46.450Z,95888.38
2022-07-29T08:31:14.693Z,95889.06
2022-07-29T08:33:42.537Z,95853.38
2022-07-29T08:36:10.823Z,95875.81
2022-07-29T08:38:38.322Z,95875.47
2022-07-29T08:41:06.044Z,95859.63
2022-07-29T08:43:36.021Z,95881.00
2022-07-29T08:46:04.930Z,95874.56
2022-07-29T08:48:33.221Z,95876.59
2022-07-29T08:51:02.482Z,95872.69
2022-07-29T08:53:32.523Z,95871.88
2022-07-29T08:56:01.159Z,95875.97
2022-07-29T08:58:33.105Z,95872.22
2022-07-29T09:01:07.759Z,95874.88
2022-07-29T09:03:41.956Z,95870.50
2022-07-29T09:06:09.699Z,95866.31
2022-07-29T09:08:37.153Z,95881.59
2022-07-29T09:11:05.614Z,95876.72
2022-07-29T09:13:33.333Z,95875.03
2022-07-29T09:16:04.488Z,95875.53
2022-07-29T09:18:40.571Z,95869.69
2022-07-29T09:21:28.295Z,95884.53
2022-07-29T09:24:03.327Z,95877.72
2022-07-29T09:26:31.608Z,95884.09
2022-07-29T09:28:59.967Z,95876.91
2022-07-29T09:31:36.317Z,95876.22
2022-07-29T09:34:06.438Z,95879.97
2022-07-29T09:36:40.769Z,95871.00
2022-07-29T09:39:08.326Z,95884.59
2022-07-29T09:41:50.579Z,95881.66
2022-07-29T09:44:18.194Z,95872.97
2022-07-29T09:47:00.315Z,95873.69
2022-07-29T09:49:29.317Z,95881.72
2022-07-29T09:52:06.585Z,95876.06
2022-07-29T09:54:37.691Z,95877.09
2022-07-29T09:57:07.370Z,95885.66
2022-07-29T09:59:35.299Z,95880.56
2022-07-29T10:02:02.802Z,95876.72
2022-07-29T10:04:41.972Z,95878.72
2022-07-29T10:07:09.833Z,95874.19
2022-07-29T10:09:37.693Z,95873.78
2022-07-29T10:12:07.417Z,95874.88
2022-07-29T10:14:35.506Z,95881.69
2022-07-29T10:17:03.898Z,95879.38
2022-07-29T10:19:32.551Z,95884.34
2022-07-29T10:22:03.345Z,95877.81
2022-07-29T10:24:32.977Z,95884.56
2022-07-29T10:27:01.897Z,95881.13
2022-07-29T10:29:32.168Z,95880.06
2022-07-29T10:32:19.072Z,95877.50
2022-07-29T10:35:02.018Z,95880.34
2022-07-29T10:37:39.468Z,95880.41
2022-07-29T10:40:45.220Z,95873.72
2022-07-29T10:43:20.186Z,95876.59
2022-07-29T10:48:39.281Z,95882.16
2022-07-29T10:51:09.305Z,95889.03
2022-07-29T10:53:52.529Z,95887.38
2022-07-29T10:56:28.970Z,95876.13
2022-07-29T10:59:36.222Z,95886.50
2022-07-29T11:02:35.368Z,95877.38
2022-07-29T11:05:02.078Z,95888.47
2022-07-29T11:07:41.611Z,95891.19
2022-07-29T11:10:31.016Z,95882.50
2022-07-29T11:12:59.399Z,95881.91
2022-07-29T11:15:28.540Z,95886.03
2022-07-29T11:18:15.194Z,95882.16
2022-07-29T11:20:46.808Z,95886.50
2022-07-29T11:23:27.438Z,95887.25
2022-07-29T11:26:21.022Z,95880.84
2022-07-29T11:28:53.990Z,95883.22
2022-07-29T11:31:35.608Z,95895.31
2022-07-29T11:34:28.247Z,95899.25
2022-07-29T11:37:28.081Z,95897.41
2022-07-29T11:40:14.795Z,95891.16
2022-07-29T11:42:51.906Z,95891.44
2022-07-29T11:45:44.412Z,95882.84
2022-07-29T11:51:12.307Z,95894.78
2022-07-29T11:53:40.843Z,95888.75
2022-07-29T11:56:11.054Z,95901.66
2022-07-29T11:58:46.628Z,95890.47
2022-07-29T12:01:16.047Z,95887.16
2022-07-29T12:03:43.680Z,95887.34
2022-07-29T12:06:18.287Z,95887.84
2022-07-29T12:07:02.107Z,95886.00
2022-07-29T12:08:48.609Z,95878.81
2022-07-29T12:11:21.164Z,95875.94
2022-07-29T12:13:51.706Z,95891.06
2022-07-29T12:16:25.798Z,95898.34
2022-07-29T12:18:58.256Z,95892.66
2022-07-29T12:21:26.722Z,95872.72
2022-07-29T12:24:01.749Z,95892.63
2022-07-29T12:26:32.461Z,95888.84
2022-07-29T12:29:03.826Z,95873.53
2022-07-29T12:31:44.078Z,95875.50
2022-07-29T12:34:13.231Z,95880.69
2022-07-29T12:36:41.282Z,95873.44
2022-07-29T12:39:09.941Z,95877.38
2022-07-29T12:41:37.863Z,95891.50
2022-07-29T12:44:06.740Z,95877.41
2022-07-29T12:46:34.390Z,95871.78
2022-07-29T12:49:04.051Z,95873.59
2022-07-29T12:51:33.182Z,95869.53
2022-07-29T12:54:06.272Z,95871.72
2022-07-29T12:56:42.673Z,95887.91
2022-07-29T12:59:16.943Z,95882.91
2022-07-29T13:01:44.735Z,95865.50
2022-07-29T13:04:12.277Z,95883.38
2022-07-29T13:06:42.647Z,95889.81
2022-07-29T13:09:15.477Z,95881.38
2022-07-29T13:11:48.397Z,95877.28
2022-07-29T13:14:33.075Z,95882.59
2022-07-29T13:17:06.634Z,95880.25
2022-07-29T13:19:41.145Z,95888.69
2022-07-29T13:22:09.131Z,95864.94
2022-07-29T13:24:47.442Z,95887.94
2022-07-29T13:27:15.710Z,95868.13
2022-07-29T13:29:44.672Z,95887.34
2022-07-29T13:32:13.705Z,95888.63
2022-07-29T13:34:41.724Z,95895.78
2022-07-29T13:37:09.259Z,95880.88
2022-07-29T13:39:38.111Z,95879.94
2022-07-29T13:42:10.656Z,95893.34
2022-07-29T13:44:38.968Z,95891.25
2022-07-29T13:47:07.975Z,95881.78
2022-07-29T13:49:35.482Z,95882.69
2022-07-29T13:52:02.986Z,95878.69
2022-07-29T13:54:30.542Z,95883.22
2022-07-29T13:56:58.570Z,95885.75
2022-07-29T13:59:26.002Z,95883.69
2022-07-29T14:01:53.445Z,95893.72
2022-07-29T14:04:22.471Z,95880.53
2022-07-29T14:06:49.981Z,95882.41
2022-07-29T14:09:17.828Z,95876.41
2022-07-29T14:11:46.631Z,95877.13
2022-07-29T14:14:14.096Z,95869.28
2022-07-29T14:16:44.549Z,95900.22
2022-07-29T14:19:18.053Z,95881.84
2022-07-29T14:21:46.848Z,95876.91
2022-07-29T14:24:21.457Z,95889.75
2022-07-29T14:26:49.355Z,95880.44
2022-07-29T14:29:16.868Z,95885.59
2022-07-29T14:31:44.711Z,95883.91
2022-07-29T14:34:12.251Z,95880.09
2022-07-29T14:36:39.740Z,95890.53
2022-07-29T14:39:08.838Z,95880.28
2022-07-29T14:41:36.305Z,95895.56
2022-07-29T14:44:04.206Z,95893.44
2022-07-29T14:46:31.767Z,95886.91
2022-07-29T14:48:59.353Z,95891.28
2022-07-29T14:51:32.378Z,95900.09
2022-07-29T14:54:00.122Z,95891.22
2022-07-29T14:56:46.778Z,95897.88
2022-07-29T14:59:14.660Z,95886.41
2022-07-29T15:01:42.142Z,95890.16
2022-07-29T15:04:09.594Z,95888.31
2022-07-29T15:06:37.242Z,95904.94
2022-07-29T15:09:04.893Z,95903.34
2022-07-29T15:11:38.592Z,95910.84
2022-07-29T15:14:06.507Z,95901.06
2022-07-29T15:16:34.309Z,95904.38
2022-07-29T15:19:02.676Z,95906.38
2022-07-29T15:21:30.136Z,95907.69
2022-07-29T15:23:57.589Z,95902.78
2022-07-29T15:26:25.372Z,95903.25
2022-07-29T15:28:54.198Z,95902.56
2022-07-29T15:31:21.808Z,95904.34
2022-07-29T15:33:49.489Z,95901.47
2022-07-29T15:36:42.207Z,95908.59
2022-07-29T15:39:04.547Z,95911.88
2022-07-29T15:41:32.010Z,95916.25
2022-07-29T15:44:00.846Z,95920.78
2022-07-29T15:46:45.840Z,95912.47
2022-07-29T15:49:13.299Z,95900.00
2022-07-29T15:51:40.769Z,95908.44
2022-07-29T15:54:08.896Z,95907.94
2022-07-29T15:56:36.440Z,95915.03
2022-07-29T15:59:05.239Z,95916.41
2022-07-29T16:01:32.685Z,95910.78
2022-07-29T16:04:00.186Z,95913.69
2022-07-29T16:06:27.871Z,95911.72
2022-07-29T16:08:55.734Z,95901.91
2022-07-29T16:11:23.268Z,95907.06
2022-07-29T16:13:50.771Z,95904.88
2022-07-29T16:16:20.189Z,95917.66
2022-07-29T16:18:48.161Z,95910.44
2022-07-29T16:21:15.668Z,95907.00
2022-07-29T16:23:43.465Z,95912.19
2022-07-29T16:26:10.927Z,95912.75
2022-07-29T16:28:38.388Z,95914.56
2022-07-29T16:31:05.859Z,95909.13
2022-07-29T16:33:54.637Z,95909.19
2022-07-29T16:36:22.985Z,95902.66
2022-07-29T16:38:51.046Z,95905.78
2022-07-29T16:41:18.634Z,95910.72
2022-07-29T16:43:46.202Z,95921.09
2022-07-29T16:46:15.658Z,95915.78
2022-07-29T16:48:48.952Z,95915.31
2022-07-29T16:51:16.554Z,95915.44
2022-07-29T16:53:45.784Z,95925.78
2022-07-29T16:56:17.228Z,95924.44
2022-07-29T16:58:44.792Z,95932.22
2022-07-29T17:01:12.610Z,95933.09
2022-07-29T17:04:00.889Z,95928.13
2022-07-29T17:06:29.874Z,95931.22
2022-07-29T17:08:57.480Z,95938.09
2022-07-29T17:11:53.221Z,95931.66
2022-07-29T17:14:12.998Z,95945.00
2022-07-29T17:16:40.503Z,95938.31
2022-07-29T17:19:08.003Z,95947.28
2022-07-29T17:21:36.820Z,95937.41
2022-07-29T17:24:16.492Z,95949.50
2022-07-29T17:26:44.460Z,95957.44
2022-07-29T17:29:12.574Z,95960.34
2022-07-29T17:31:40.135Z,95957.53
2022-07-29T17:34:08.650Z,95958.22
2022-07-29T17:36:37.504Z,95949.88
2022-07-29T17:39:07.187Z,95955.84
2022-07-29T17:41:35.304Z,95958.31
2022-07-29T17:44:02.734Z,95956.78
2022-07-29T17:46:30.609Z,95962.00
2022-07-29T17:48:58.688Z,95957.53
2022-07-29T17:51:27.345Z,95965.06
2022-07-29T17:53:56.219Z,95953.25
2022-07-29T17:56:23.678Z,95957.03
2022-07-29T17:58:51.168Z,95950.19
2022-07-29T18:01:19.000Z,95957.28
2022-07-29T18:03:46.867Z,95951.59
2022-07-29T18:06:14.368Z,95954.97
2022-07-29T18:08:41.879Z,95964.00
2022-07-29T18:11:14.930Z,95967.25
2022-07-29T18:13:43.178Z,95953.38
2022-07-29T18:16:11.632Z,95964.00
2022-07-29T18:18:39.538Z,95974.31
2022-07-29T18:21:07.233Z,95973.38
2022-07-29T18:23:34.915Z,95975.16
2022-07-29T18:26:02.374Z,95980.78
2022-07-29T18:28:32.580Z,95975.78
2022-07-29T18:31:00.432Z,95988.91
2022-07-29T18:33:28.730Z,95986.09
2022-07-29T18:36:10.846Z,95986.22
2022-07-29T18:38:39.347Z,95989.00
2022-07-29T18:41:06.796Z,95994.47
2022-07-29T18:43:35.649Z,95977.31
2022-07-29T18:46:05.229Z,95988.53
2022-07-29T18:48:33.066Z,95990.84
2022-07-29T18:51:00.670Z,95987.56
2022-07-29T18:53:28.147Z,95992.97
2022-07-29T18:56:00.183Z,95998.69
2022-07-29T18:58:27.988Z,96006.72
2022-07-29T19:00:56.833Z,95997.06
2022-07-29T19:03:24.280Z,96000.31
2022-07-29T19:05:52.458Z,96004.50
2022-07-29T19:08:19.928Z,96004.75
2022-07-29T19:10:47.467Z,96000.69
2022-07-29T19:13:15.029Z,96006.47
2022-07-29T19:15:42.565Z,96009.00
2022-07-29T19:18:13.150Z,96011.31
2022-07-29T19:20:41.950Z,96014.53
2022-07-29T19:23:09.681Z,96007.25
2022-07-29T19:25:37.361Z,96006.63
2022-07-29T19:28:20.882Z,96003.22
2022-07-29T19:30:48.420Z,96015.53
2022-07-29T19:33:18.766Z,96016.63
2022-07-29T19:35:48.386Z,96029.06
2022-07-29T19:38:18.645Z,96030.97
2022-07-29T19:40:46.195Z,96022.06
2022-07-29T19:43:50.526Z,96033.63
2022-07-29T19:46:01.426Z,96034.03
2022-07-29T19:48:30.363Z,96032.56
2022-07-29T19:50:57.901Z,96026.81
2022-07-29T19:53:25.369Z,96030.47
2022-07-29T19:55:53.125Z,96039.31
2022-07-29T19:58:22.448Z,96039.25
2022-07-29T20:00:50.379Z,96051.97
2022-07-29T20:03:17.903Z,96047.41
2022-07-29T20:05:48.005Z,96048.22
2022-07-29T20:08:15.881Z,96045.69
2022-07-29T20:10:43.318Z,96055.00
2022-07-29T20:13:10.868Z,96042.97
2022-07-29T20:15:38.492Z,96060.75
2022-07-29T20:18:06.232Z,96060.19
2022-07-29T20:20:34.244Z,96054.69
2022-07-29T20:23:03.615Z,96061.72
2022-07-29T20:25:31.262Z,96059.78
2022-07-29T20:27:58.938Z,96060.75
2022-07-29T20:30:26.688Z,96061.34
2022-07-29T20:32:55.134Z,96065.63
2022-07-29T20:35:23.139Z,96076.59
2022-07-29T20:37:55.619Z,96050.88
2022-07-29T20:40:26.170Z,96067.22
2022-07-29T20:42:53.725Z,96073.66
2022-07-29T20:45:21.744Z,96063.31
2022-07-29T20:47:50.564Z,96078.34
2022-07-29T20:50:18.305Z,96077.81
2022-07-29T20:52:45.755Z,96079.28
2022-07-29T20:55:13.262Z,96085.22
2022-07-29T20:57:42.917Z,96077.88
2022-07-29T21:00:11.767Z,96086.72
2022-07-29T21:02:39.321Z,96092.38
2022-07-29T21:05:07.438Z,96099.84
2022-07-29T21:07:34.900Z,96094.16
2022-07-29T21:10:02.454Z,96095.84
2022-07-29T21:12:30.390Z,96093.75
2022-07-29T21:14:59.189Z,96104.75
2022-07-29T21:17:26.640Z,96101.06
2022-07-29T21:19:55.200Z,96098.22
2022-07-29T21:22:22.656Z,96107.88
2022-07-29T21:24:50.172Z,96107.78
2022-07-29T21:27:38.335Z,96106.06
2022-07-29T21:30:09.291Z,96112.88
2022-07-29T21:32:36.885Z,96099.28
2022-07-29T21:35:14.545Z,96118.22
2022-07-29T21:37:52.549Z,96118.03
2022-07-29T21:40:20.068Z,96121.69
2022-07-29T21:42:47.537Z,96127.81
2022-07-29T21:45:18.648Z,96128.72
2022-07-29T21:47:46.127Z,96127.47
2022-07-29T21:50:13.591Z,96127.25
2022-07-29T21:52:41.042Z,96133.63
2022-07-29T21:55:10.667Z,96127.34
2022-07-29T21:57:39.196Z,96134.44
2022-07-29T22:00:10.270Z,96133.16
2022-07-29T22:02:39.035Z,96133.75
2022-07-29T22:05:06.845Z,96135.84
2022-07-29T22:07:56.298Z,96130.41
2022-07-29T22:10:21.893Z,96120.53
2022-07-29T22:12:51.797Z,96124.63
2022-07-29T22:15:19.317Z,96128.31
2022-07-29T22:17:48.157Z,96125.19
2022-07-29T22:20:15.869Z,96130.44
2022-07-29T22:22:43.360Z,96135.53
2022-07-29T22:25:11.949Z,96130.03
2022-07-29T22:27:39.841Z,96122.41
2022-07-29T22:30:08.564Z,96126.63
2022-07-29T22:32:36.239Z,96115.06
2022-07-29T22:35:05.481Z,96118.97
2022-07-29T22:37:32.964Z,96119.81
2022-07-29T22:40:00.444Z,96123.59
2022-07-29T22:42:28.013Z,96121.75
2022-07-29T22:44:55.535Z,96123.84
2022-07-29T22:47:45.833Z,96124.91
2022-07-29T22:50:11.918Z,96123.09
2022-07-29T22:52:39.370Z,96115.31
2022-07-29T22:55:07.711Z,96119.03
2022-07-29T22:57:35.153Z,96112.75
2022-07-29T23:00:02.720Z,96102.22
2022-07-29T23:02:30.238Z,96093.81
2022-07-29T23:04:58.061Z,96099.31
2022-07-29T23:07:27.025Z,96095.72
2022-07-29T23:09:54.454Z,96088.31
2022-07-29T23:12:22.098Z,96087.31
2022-07-29T23:14:49.513Z,96082.91
2022-07-29T23:17:17.006Z,96086.09
2022-07-29T23:19:44.482Z,96084.56
2022-07-29T23:22:12.160Z,96083.06
2022-07-29T23:24:41.126Z,96089.38
2022-07-29T23:27:08.618Z,96082.03
2022-07-29T23:29:36.902Z,96088.06
2022-07-29T23:32:04.843Z,96073.13
2022-07-29T23:34:32.306Z,96087.53
2022-07-29T23:36:59.939Z,96073.38
2022-07-29T23:39:27.554Z,96075.50
2022-07-29T23:41:56.973Z,96078.88
2022-07-29T23:44:24.476Z,96079.41
2022-07-29T23:46:51.943Z,96078.13
2022-07-29T23:49:19.446Z,96072.34
2022-07-29T23:51:46.913Z,96074.22
2022-07-29T23:54:14.435Z,96078.94
2022-07-29T23:56:41.907Z,96067.66
2022-07-29T23:59:10.676Z,96071.13
